sensor_id;sensor_type;location;lat;lon;timestamp;P1;durP1;ratioP1;P2;durP2;ratioP2
39890;SDS011;25564;53.312;9.790;2024-02-26T00:02:30;8.47;;;4.87;;
39890;SDS011;25564;53.312;9.790;2024-02-26T00:05:06;7.03;;;4.73;;
39890;SDS011;25564;53.312;9.790;2024-02-26T00:07:38;6.85;;;5.72;;
39890;SDS011;25564;53.312;9.790;2024-02-26T00:10:10;6.80;;;4.50;;
39890;SDS011;25564;53.312;9.790;2024-02-26T00:12:41;7.60;;;4.50;;
39890;SDS011;25564;53.312;9.790;2024-02-26T00:15:13;9.17;;;5.03;;
39890;SDS011;25564;53.312;9.790;2024-02-26T00:17:45;7.53;;;4.40;;
39890;SDS011;25564;53.312;9.790;2024-02-26T00:20:16;9.00;;;4.60;;
39890;SDS011;25564;53.312;9.790;2024-02-26T00:22:48;11.10;;;5.23;;
39890;SDS011;25564;53.312;9.790;2024-02-26T00:25:19;7.90;;;4.90;;
39890;SDS011;25564;53.312;9.790;2024-02-26T00:27:50;9.37;;;5.17;;
39890;SDS011;25564;53.312;9.790;2024-02-26T00:30:23;13.77;;;5.80;;
39890;SDS011;25564;53.312;9.790;2024-02-26T00:32:56;9.67;;;6.00;;
39890;SDS011;25564;53.312;9.790;2024-02-26T00:35:27;9.30;;;5.90;;
39890;SDS011;25564;53.312;9.790;2024-02-26T00:37:58;11.00;;;6.00;;
39890;SDS011;25564;53.312;9.790;2024-02-26T00:40:32;7.83;;;4.53;;
39890;SDS011;25564;53.312;9.790;2024-02-26T00:43:03;9.13;;;5.30;;
39890;SDS011;25564;53.312;9.790;2024-02-26T00:45:34;10.17;;;6.00;;
39890;SDS011;25564;53.312;9.790;2024-02-26T00:48:06;9.33;;;4.97;;
39890;SDS011;25564;53.312;9.790;2024-02-26T00:50:40;10.97;;;6.27;;
39890;SDS011;25564;53.312;9.790;2024-02-26T00:53:11;9.57;;;5.70;;
39890;SDS011;25564;53.312;9.790;2024-02-26T00:55:43;13.30;;;6.07;;
39890;SDS011;25564;53.312;9.790;2024-02-26T00:58:14;8.80;;;5.90;;
39890;SDS011;25564;53.312;9.790;2024-02-26T01:00:45;11.13;;;6.00;;
39890;SDS011;25564;53.312;9.790;2024-02-26T01:03:17;12.80;;;7.33;;
39890;SDS011;25564;53.312;9.790;2024-02-26T01:05:49;10.30;;;6.70;;
39890;SDS011;25564;53.312;9.790;2024-02-26T01:08:20;10.20;;;5.50;;
39890;SDS011;25564;53.312;9.790;2024-02-26T01:10:52;10.50;;;5.70;;
39890;SDS011;25564;53.312;9.790;2024-02-26T01:13:23;8.40;;;4.60;;
39890;SDS011;25564;53.312;9.790;2024-02-26T01:15:55;10.53;;;5.93;;
39890;SDS011;25564;53.312;9.790;2024-02-26T01:18:26;9.47;;;5.27;;
39890;SDS011;25564;53.312;9.790;2024-02-26T01:20:58;10.50;;;6.00;;
39890;SDS011;25564;53.312;9.790;2024-02-26T01:23:30;10.00;;;5.33;;
39890;SDS011;25564;53.312;9.790;2024-02-26T01:26:01;11.37;;;5.73;;
39890;SDS011;25564;53.312;9.790;2024-02-26T01:28:33;10.83;;;6.10;;
39890;SDS011;25564;53.312;9.790;2024-02-26T01:31:05;9.53;;;5.77;;
39890;SDS011;25564;53.312;9.790;2024-02-26T01:33:38;12.33;;;5.73;;
39890;SDS011;25564;53.312;9.790;2024-02-26T01:36:10;11.77;;;6.30;;
39890;SDS011;25564;53.312;9.790;2024-02-26T01:38:41;12.90;;;6.63;;
39890;SDS011;25564;53.312;9.790;2024-02-26T01:41:13;11.50;;;6.17;;
39890;SDS011;25564;53.312;9.790;2024-02-26T01:43:45;12.17;;;6.50;;
39890;SDS011;25564;53.312;9.790;2024-02-26T01:46:16;10.23;;;6.13;;
39890;SDS011;25564;53.312;9.790;2024-02-26T01:48:49;11.73;;;6.60;;
39890;SDS011;25564;53.312;9.790;2024-02-26T01:51:21;11.07;;;6.27;;
39890;SDS011;25564;53.312;9.790;2024-02-26T01:53:53;11.93;;;6.73;;
39890;SDS011;25564;53.312;9.790;2024-02-26T01:56:25;19.10;;;7.30;;
39890;SDS011;25564;53.312;9.790;2024-02-26T01:59:01;17.17;;;6.90;;
39890;SDS011;25564;53.312;9.790;2024-02-26T02:01:33;11.47;;;6.50;;
39890;SDS011;25564;53.312;9.790;2024-02-26T02:04:05;15.37;;;6.97;;
39890;SDS011;25564;53.312;9.790;2024-02-26T02:06:38;11.03;;;6.07;;
39890;SDS011;25564;53.312;9.790;2024-02-26T02:09:10;16.33;;;8.00;;
39890;SDS011;25564;53.312;9.790;2024-02-26T02:11:42;16.57;;;7.87;;
39890;SDS011;25564;53.312;9.790;2024-02-26T02:14:15;16.53;;;9.00;;
39890;SDS011;25564;53.312;9.790;2024-02-26T02:16:47;18.53;;;8.63;;
39890;SDS011;25564;53.312;9.790;2024-02-26T02:19:18;18.67;;;9.00;;
39890;SDS011;25564;53.312;9.790;2024-02-26T02:21:50;15.50;;;7.43;;
39890;SDS011;25564;53.312;9.790;2024-02-26T02:24:21;16.57;;;8.20;;
39890;SDS011;25564;53.312;9.790;2024-02-26T02:26:53;15.43;;;8.13;;
39890;SDS011;25564;53.312;9.790;2024-02-26T02:29:25;16.63;;;8.33;;
39890;SDS011;25564;53.312;9.790;2024-02-26T02:31:58;18.27;;;8.73;;
39890;SDS011;25564;53.312;9.790;2024-02-26T02:34:30;20.83;;;8.63;;
39890;SDS011;25564;53.312;9.790;2024-02-26T02:37:03;17.43;;;9.50;;
39890;SDS011;25564;53.312;9.790;2024-02-26T02:39:34;16.40;;;7.90;;
39890;SDS011;25564;53.312;9.790;2024-02-26T02:42:06;14.93;;;7.77;;
39890;SDS011;25564;53.312;9.790;2024-02-26T02:44:37;16.93;;;9.50;;
39890;SDS011;25564;53.312;9.790;2024-02-26T02:47:10;17.00;;;8.57;;
39890;SDS011;25564;53.312;9.790;2024-02-26T02:49:41;18.10;;;8.53;;
39890;SDS011;25564;53.312;9.790;2024-02-26T02:52:13;20.20;;;9.37;;
39890;SDS011;25564;53.312;9.790;2024-02-26T02:54:44;21.10;;;10.03;;
39890;SDS011;25564;53.312;9.790;2024-02-26T02:57:18;18.33;;;8.60;;
39890;SDS011;25564;53.312;9.790;2024-02-26T02:59:49;16.00;;;9.13;;
39890;SDS011;25564;53.312;9.790;2024-02-26T03:02:21;18.30;;;8.47;;
39890;SDS011;25564;53.312;9.790;2024-02-26T03:04:52;17.33;;;8.70;;
39890;SDS011;25564;53.312;9.790;2024-02-26T03:07:24;21.13;;;8.90;;
39890;SDS011;25564;53.312;9.790;2024-02-26T03:09:56;19.10;;;9.77;;
39890;SDS011;25564;53.312;9.790;2024-02-26T03:12:28;20.90;;;9.83;;
39890;SDS011;25564;53.312;9.790;2024-02-26T03:15:01;18.17;;;9.30;;
39890;SDS011;25564;53.312;9.790;2024-02-26T03:17:34;19.73;;;9.67;;
39890;SDS011;25564;53.312;9.790;2024-02-26T03:20:05;19.57;;;9.93;;
39890;SDS011;25564;53.312;9.790;2024-02-26T03:22:39;19.67;;;9.10;;
39890;SDS011;25564;53.312;9.790;2024-02-26T03:25:11;19.37;;;8.87;;
39890;SDS011;25564;53.312;9.790;2024-02-26T03:27:42;16.43;;;8.57;;
39890;SDS011;25564;53.312;9.790;2024-02-26T03:30:14;14.27;;;7.27;;
39890;SDS011;25564;53.312;9.790;2024-02-26T03:32:45;19.43;;;9.23;;
39890;SDS011;25564;53.312;9.790;2024-02-26T03:35:18;16.20;;;8.57;;
39890;SDS011;25564;53.312;9.790;2024-02-26T03:37:50;16.57;;;9.20;;
39890;SDS011;25564;53.312;9.790;2024-02-26T03:40:22;16.53;;;8.33;;
39890;SDS011;25564;53.312;9.790;2024-02-26T03:42:55;17.90;;;9.43;;
39890;SDS011;25564;53.312;9.790;2024-02-26T03:45:28;19.40;;;9.17;;
39890;SDS011;25564;53.312;9.790;2024-02-26T03:48:00;22.10;;;9.50;;
39890;SDS011;25564;53.312;9.790;2024-02-26T03:50:31;21.67;;;9.13;;
39890;SDS011;25564;53.312;9.790;2024-02-26T03:53:03;18.97;;;9.83;;
39890;SDS011;25564;53.312;9.790;2024-02-26T03:55:35;17.03;;;8.17;;
39890;SDS011;25564;53.312;9.790;2024-02-26T03:58:06;19.83;;;9.47;;
39890;SDS011;25564;53.312;9.790;2024-02-26T04:00:38;19.70;;;10.20;;
39890;SDS011;25564;53.312;9.790;2024-02-26T04:03:10;24.70;;;9.93;;
39890;SDS011;25564;53.312;9.790;2024-02-26T04:05:42;17.40;;;8.97;;
39890;SDS011;25564;53.312;9.790;2024-02-26T04:08:13;19.37;;;9.27;;
39890;SDS011;25564;53.312;9.790;2024-02-26T04:10:45;15.93;;;8.67;;
39890;SDS011;25564;53.312;9.790;2024-02-26T04:13:17;16.40;;;8.47;;
39890;SDS011;25564;53.312;9.790;2024-02-26T04:15:49;14.30;;;7.83;;
39890;SDS011;25564;53.312;9.790;2024-02-26T04:18:20;24.37;;;9.50;;
39890;SDS011;25564;53.312;9.790;2024-02-26T04:20:52;20.73;;;9.97;;
39890;SDS011;25564;53.312;9.790;2024-02-26T04:23:23;22.00;;;10.40;;
39890;SDS011;25564;53.312;9.790;2024-02-26T04:25:55;20.90;;;9.93;;
39890;SDS011;25564;53.312;9.790;2024-02-26T04:28:27;29.40;;;11.83;;
39890;SDS011;25564;53.312;9.790;2024-02-26T04:31:00;27.93;;;11.53;;
39890;SDS011;25564;53.312;9.790;2024-02-26T04:33:33;25.43;;;10.40;;
39890;SDS011;25564;53.312;9.790;2024-02-26T04:36:05;17.77;;;8.50;;
39890;SDS011;25564;53.312;9.790;2024-02-26T04:38:43;19.50;;;9.77;;
39890;SDS011;25564;53.312;9.790;2024-02-26T04:41:15;23.97;;;10.50;;
39890;SDS011;25564;53.312;9.790;2024-02-26T04:43:46;26.40;;;12.10;;
39890;SDS011;25564;53.312;9.790;2024-02-26T04:46:18;21.83;;;10.30;;
39890;SDS011;25564;53.312;9.790;2024-02-26T04:48:49;18.90;;;9.27;;
39890;SDS011;25564;53.312;9.790;2024-02-26T04:51:22;19.60;;;9.80;;
39890;SDS011;25564;53.312;9.790;2024-02-26T04:53:53;17.40;;;9.87;;
39890;SDS011;25564;53.312;9.790;2024-02-26T04:56:25;22.10;;;10.80;;
39890;SDS011;25564;53.312;9.790;2024-02-26T04:58:56;17.83;;;9.43;;
39890;SDS011;25564;53.312;9.790;2024-02-26T05:01:28;19.80;;;8.87;;
39890;SDS011;25564;53.312;9.790;2024-02-26T05:04:00;18.07;;;9.00;;
39890;SDS011;25564;53.312;9.790;2024-02-26T05:06:31;17.30;;;9.53;;
39890;SDS011;25564;53.312;9.790;2024-02-26T05:09:03;20.90;;;9.67;;
39890;SDS011;25564;53.312;9.790;2024-02-26T05:11:35;19.33;;;9.00;;
39890;SDS011;25564;53.312;9.790;2024-02-26T05:14:06;18.97;;;10.13;;
39890;SDS011;25564;53.312;9.790;2024-02-26T05:16:37;18.53;;;9.57;;
39890;SDS011;25564;53.312;9.790;2024-02-26T05:19:09;16.40;;;10.10;;
39890;SDS011;25564;53.312;9.790;2024-02-26T05:21:41;22.50;;;10.30;;
39890;SDS011;25564;53.312;9.790;2024-02-26T05:24:13;20.23;;;9.27;;
39890;SDS011;25564;53.312;9.790;2024-02-26T05:26:46;19.50;;;10.00;;
39890;SDS011;25564;53.312;9.790;2024-02-26T05:29:18;16.50;;;8.87;;
39890;SDS011;25564;53.312;9.790;2024-02-26T05:31:49;20.13;;;10.83;;
39890;SDS011;25564;53.312;9.790;2024-02-26T05:34:21;19.80;;;10.03;;
39890;SDS011;25564;53.312;9.790;2024-02-26T05:36:53;21.47;;;11.93;;
39890;SDS011;25564;53.312;9.790;2024-02-26T05:39:25;18.50;;;10.37;;
39890;SDS011;25564;53.312;9.790;2024-02-26T05:41:56;17.23;;;9.60;;
39890;SDS011;25564;53.312;9.790;2024-02-26T05:44:27;19.30;;;10.47;;
39890;SDS011;25564;53.312;9.790;2024-02-26T05:47:00;19.03;;;10.53;;
39890;SDS011;25564;53.312;9.790;2024-02-26T05:49:35;21.50;;;10.80;;
39890;SDS011;25564;53.312;9.790;2024-02-26T05:52:06;19.03;;;10.13;;
39890;SDS011;25564;53.312;9.790;2024-02-26T05:54:38;21.83;;;10.60;;
39890;SDS011;25564;53.312;9.790;2024-02-26T05:57:09;24.37;;;10.90;;
39890;SDS011;25564;53.312;9.790;2024-02-26T05:59:40;22.20;;;10.73;;
39890;SDS011;25564;53.312;9.790;2024-02-26T06:02:12;19.27;;;10.40;;
39890;SDS011;25564;53.312;9.790;2024-02-26T06:04:44;17.33;;;9.33;;
39890;SDS011;25564;53.312;9.790;2024-02-26T06:07:17;20.70;;;10.13;;
39890;SDS011;25564;53.312;9.790;2024-02-26T06:09:49;20.03;;;10.43;;
39890;SDS011;25564;53.312;9.790;2024-02-26T06:12:20;19.83;;;10.63;;
39890;SDS011;25564;53.312;9.790;2024-02-26T06:14:52;15.53;;;8.93;;
39890;SDS011;25564;53.312;9.790;2024-02-26T06:17:24;18.20;;;9.67;;
39890;SDS011;25564;53.312;9.790;2024-02-26T06:19:56;16.60;;;9.70;;
39890;SDS011;25564;53.312;9.790;2024-02-26T06:22:28;16.90;;;9.63;;
39890;SDS011;25564;53.312;9.790;2024-02-26T06:25:00;22.23;;;10.57;;
39890;SDS011;25564;53.312;9.790;2024-02-26T06:27:32;18.87;;;9.53;;
39890;SDS011;25564;53.312;9.790;2024-02-26T06:30:04;16.80;;;9.83;;
39890;SDS011;25564;53.312;9.790;2024-02-26T06:32:36;19.00;;;9.60;;
39890;SDS011;25564;53.312;9.790;2024-02-26T06:35:08;20.40;;;10.67;;
39890;SDS011;25564;53.312;9.790;2024-02-26T06:37:42;19.47;;;10.87;;
39890;SDS011;25564;53.312;9.790;2024-02-26T06:40:14;21.73;;;10.73;;
39890;SDS011;25564;53.312;9.790;2024-02-26T06:42:45;21.87;;;11.73;;
39890;SDS011;25564;53.312;9.790;2024-02-26T06:45:20;24.53;;;11.90;;
39890;SDS011;25564;53.312;9.790;2024-02-26T06:47:51;22.93;;;11.53;;
39890;SDS011;25564;53.312;9.790;2024-02-26T06:50:23;21.77;;;11.93;;
39890;SDS011;25564;53.312;9.790;2024-02-26T06:52:54;22.83;;;12.30;;
39890;SDS011;25564;53.312;9.790;2024-02-26T06:55:26;26.23;;;12.07;;
39890;SDS011;25564;53.312;9.790;2024-02-26T06:57:57;24.17;;;12.30;;
39890;SDS011;25564;53.312;9.790;2024-02-26T07:00:29;22.37;;;11.73;;
39890;SDS011;25564;53.312;9.790;2024-02-26T07:03:00;21.90;;;12.00;;
39890;SDS011;25564;53.312;9.790;2024-02-26T07:05:32;20.10;;;11.57;;
39890;SDS011;25564;53.312;9.790;2024-02-26T07:08:04;19.90;;;11.27;;
39890;SDS011;25564;53.312;9.790;2024-02-26T07:10:35;23.00;;;11.33;;
39890;SDS011;25564;53.312;9.790;2024-02-26T07:13:07;19.47;;;10.40;;
39890;SDS011;25564;53.312;9.790;2024-02-26T07:15:38;20.13;;;10.90;;
39890;SDS011;25564;53.312;9.790;2024-02-26T07:18:10;18.77;;;10.57;;
39890;SDS011;25564;53.312;9.790;2024-02-26T07:20:42;19.03;;;10.87;;
39890;SDS011;25564;53.312;9.790;2024-02-26T07:23:14;19.37;;;10.83;;
39890;SDS011;25564;53.312;9.790;2024-02-26T07:25:45;20.10;;;10.60;;
39890;SDS011;25564;53.312;9.790;2024-02-26T07:28:19;18.30;;;10.57;;
39890;SDS011;25564;53.312;9.790;2024-02-26T07:30:50;15.30;;;9.23;;
39890;SDS011;25564;53.312;9.790;2024-02-26T07:33:22;18.20;;;9.57;;
39890;SDS011;25564;53.312;9.790;2024-02-26T07:35:53;16.10;;;9.10;;
39890;SDS011;25564;53.312;9.790;2024-02-26T07:38:25;17.43;;;9.67;;
39890;SDS011;25564;53.312;9.790;2024-02-26T07:41:12;14.93;;;8.67;;
39890;SDS011;25564;53.312;9.790;2024-02-26T07:43:43;18.67;;;9.70;;
39890;SDS011;25564;53.312;9.790;2024-02-26T07:46:15;16.50;;;8.83;;
39890;SDS011;25564;53.312;9.790;2024-02-26T07:48:46;17.97;;;9.57;;
39890;SDS011;25564;53.312;9.790;2024-02-26T07:51:18;18.67;;;9.87;;
39890;SDS011;25564;53.312;9.790;2024-02-26T07:53:50;17.23;;;9.53;;
39890;SDS011;25564;53.312;9.790;2024-02-26T07:56:24;20.87;;;9.67;;
39890;SDS011;25564;53.312;9.790;2024-02-26T07:58:55;21.77;;;10.20;;
39890;SDS011;25564;53.312;9.790;2024-02-26T08:01:26;18.70;;;9.77;;
39890;SDS011;25564;53.312;9.790;2024-02-26T08:03:58;20.13;;;10.40;;
39890;SDS011;25564;53.312;9.790;2024-02-26T08:06:30;15.40;;;8.80;;
39890;SDS011;25564;53.312;9.790;2024-02-26T08:09:04;17.00;;;10.00;;
39890;SDS011;25564;53.312;9.790;2024-02-26T08:11:36;15.07;;;8.43;;
39890;SDS011;25564;53.312;9.790;2024-02-26T08:14:07;15.23;;;7.73;;
39890;SDS011;25564;53.312;9.790;2024-02-26T08:16:39;14.00;;;7.60;;
39890;SDS011;25564;53.312;9.790;2024-02-26T08:19:10;10.67;;;6.67;;
39890;SDS011;25564;53.312;9.790;2024-02-26T08:21:44;13.73;;;6.90;;
39890;SDS011;25564;53.312;9.790;2024-02-26T08:24:16;13.50;;;7.30;;
39890;SDS011;25564;53.312;9.790;2024-02-26T08:26:48;14.53;;;7.33;;
39890;SDS011;25564;53.312;9.790;2024-02-26T08:29:19;12.93;;;7.23;;
39890;SDS011;25564;53.312;9.790;2024-02-26T08:31:51;12.17;;;6.87;;
39890;SDS011;25564;53.312;9.790;2024-02-26T08:34:22;13.63;;;7.00;;
39890;SDS011;25564;53.312;9.790;2024-02-26T08:36:54;9.97;;;6.17;;
39890;SDS011;25564;53.312;9.790;2024-02-26T08:39:26;14.33;;;6.97;;
39890;SDS011;25564;53.312;9.790;2024-02-26T08:41:57;12.47;;;6.57;;
39890;SDS011;25564;53.312;9.790;2024-02-26T08:44:29;10.03;;;5.93;;
39890;SDS011;25564;53.312;9.790;2024-02-26T08:47:00;8.97;;;6.60;;
39890;SDS011;25564;53.312;9.790;2024-02-26T08:49:32;13.17;;;6.57;;
39890;SDS011;25564;53.312;9.790;2024-02-26T08:52:04;12.27;;;6.93;;
39890;SDS011;25564;53.312;9.790;2024-02-26T08:54:35;9.37;;;6.83;;
39890;SDS011;25564;53.312;9.790;2024-02-26T08:57:07;9.53;;;6.67;;
39890;SDS011;25564;53.312;9.790;2024-02-26T08:59:38;11.07;;;5.93;;
39890;SDS011;25564;53.312;9.790;2024-02-26T09:02:10;14.20;;;6.33;;
39890;SDS011;25564;53.312;9.790;2024-02-26T09:04:42;9.43;;;6.20;;
39890;SDS011;25564;53.312;9.790;2024-02-26T09:07:13;10.90;;;6.07;;
39890;SDS011;25564;53.312;9.790;2024-02-26T09:09:45;10.97;;;6.37;;
39890;SDS011;25564;53.312;9.790;2024-02-26T09:12:16;9.30;;;5.43;;
39890;SDS011;25564;53.312;9.790;2024-02-26T09:14:48;11.07;;;6.13;;
39890;SDS011;25564;53.312;9.790;2024-02-26T09:17:20;11.50;;;6.47;;
39890;SDS011;25564;53.312;9.790;2024-02-26T09:19:51;11.67;;;5.80;;
39890;SDS011;25564;53.312;9.790;2024-02-26T09:22:22;11.60;;;5.43;;
39890;SDS011;25564;53.312;9.790;2024-02-26T09:24:54;10.03;;;5.60;;
39890;SDS011;25564;53.312;9.790;2024-02-26T09:27:25;8.07;;;4.90;;
39890;SDS011;25564;53.312;9.790;2024-02-26T09:29:57;8.23;;;5.07;;
39890;SDS011;25564;53.312;9.790;2024-02-26T09:32:28;11.83;;;5.70;;
39890;SDS011;25564;53.312;9.790;2024-02-26T09:35:01;8.33;;;5.20;;
39890;SDS011;25564;53.312;9.790;2024-02-26T09:37:33;7.40;;;4.70;;
39890;SDS011;25564;53.312;9.790;2024-02-26T09:40:05;9.07;;;5.30;;
39890;SDS011;25564;53.312;9.790;2024-02-26T09:42:38;9.53;;;5.47;;
39890;SDS011;25564;53.312;9.790;2024-02-26T09:45:17;7.60;;;4.50;;
39890;SDS011;25564;53.312;9.790;2024-02-26T09:47:50;7.22;;;4.45;;
39890;SDS011;25564;53.312;9.790;2024-02-26T09:50:23;9.23;;;5.13;;
39890;SDS011;25564;53.312;9.790;2024-02-26T09:52:55;8.73;;;5.27;;
39890;SDS011;25564;53.312;9.790;2024-02-26T09:55:28;10.97;;;5.23;;
39890;SDS011;25564;53.312;9.790;2024-02-26T09:58:00;8.43;;;4.60;;
39890;SDS011;25564;53.312;9.790;2024-02-26T10:00:31;8.40;;;4.33;;
39890;SDS011;25564;53.312;9.790;2024-02-26T10:03:06;8.57;;;4.67;;
39890;SDS011;25564;53.312;9.790;2024-02-26T10:05:42;9.23;;;4.43;;
39890;SDS011;25564;53.312;9.790;2024-02-26T10:08:17;8.30;;;4.60;;
39890;SDS011;25564;53.312;9.790;2024-02-26T10:10:50;7.10;;;4.43;;
39890;SDS011;25564;53.312;9.790;2024-02-26T10:13:22;6.73;;;4.80;;
39890;SDS011;25564;53.312;9.790;2024-02-26T10:15:54;11.30;;;6.83;;
39890;SDS011;25564;53.312;9.790;2024-02-26T10:18:25;5.60;;;3.90;;
39890;SDS011;25564;53.312;9.790;2024-02-26T10:21:00;9.80;;;5.13;;
39890;SDS011;25564;53.312;9.790;2024-02-26T10:23:33;7.97;;;5.23;;
39890;SDS011;25564;53.312;9.790;2024-02-26T10:26:04;6.10;;;4.33;;
39890;SDS011;25564;53.312;9.790;2024-02-26T10:28:36;5.80;;;3.87;;
39890;SDS011;25564;53.312;9.790;2024-02-26T10:31:08;7.40;;;4.20;;
39890;SDS011;25564;53.312;9.790;2024-02-26T10:33:40;11.00;;;4.43;;
39890;SDS011;25564;53.312;9.790;2024-02-26T10:36:14;7.67;;;4.73;;
39890;SDS011;25564;53.312;9.790;2024-02-26T10:38:47;9.90;;;4.67;;
39890;SDS011;25564;53.312;9.790;2024-02-26T10:41:19;7.60;;;5.13;;
39890;SDS011;25564;53.312;9.790;2024-02-26T10:43:50;6.53;;;4.27;;
39890;SDS011;25564;53.312;9.790;2024-02-26T10:46:23;7.90;;;5.30;;
39890;SDS011;25564;53.312;9.790;2024-02-26T10:48:54;7.33;;;5.87;;
39890;SDS011;25564;53.312;9.790;2024-02-26T10:51:29;5.90;;;4.07;;
39890;SDS011;25564;53.312;9.790;2024-02-26T10:54:01;7.60;;;4.57;;
39890;SDS011;25564;53.312;9.790;2024-02-26T10:56:38;6.83;;;5.00;;
39890;SDS011;25564;53.312;9.790;2024-02-26T11:01:51;6.00;;;3.83;;
39890;SDS011;25564;53.312;9.790;2024-02-26T11:04:23;5.80;;;3.53;;
39890;SDS011;25564;53.312;9.790;2024-02-26T11:06:58;5.93;;;3.77;;
39890;SDS011;25564;53.312;9.790;2024-02-26T11:09:31;4.90;;;3.37;;
39890;SDS011;25564;53.312;9.790;2024-02-26T11:12:04;5.57;;;3.47;;
39890;SDS011;25564;53.312;9.790;2024-02-26T11:14:42;5.57;;;3.63;;
39890;SDS011;25564;53.312;9.790;2024-02-26T11:17:16;7.57;;;4.40;;
39890;SDS011;25564;53.312;9.790;2024-02-26T11:19:50;8.43;;;4.40;;
39890;SDS011;25564;53.312;9.790;2024-02-26T11:22:24;6.40;;;3.53;;
39890;SDS011;25564;53.312;9.790;2024-02-26T11:24:59;5.93;;;4.15;;
39890;SDS011;25564;53.312;9.790;2024-02-26T11:27:39;8.57;;;4.30;;
39890;SDS011;25564;53.312;9.790;2024-02-26T11:30:14;5.57;;;3.73;;
39890;SDS011;25564;53.312;9.790;2024-02-26T11:32:47;5.20;;;4.53;;
39890;SDS011;25564;53.312;9.790;2024-02-26T11:35:20;7.20;;;3.83;;
39890;SDS011;25564;53.312;9.790;2024-02-26T11:37:54;6.80;;;4.70;;
39890;SDS011;25564;53.312;9.790;2024-02-26T11:40:27;6.30;;;3.80;;
39890;SDS011;25564;53.312;9.790;2024-02-26T11:42:59;6.97;;;5.60;;
39890;SDS011;25564;53.312;9.790;2024-02-26T11:48:11;4.97;;;3.63;;
39890;SDS011;25564;53.312;9.790;2024-02-26T11:50:48;6.50;;;3.97;;
39890;SDS011;25564;53.312;9.790;2024-02-26T11:58:48;5.90;;;3.77;;
39890;SDS011;25564;53.312;9.790;2024-02-26T12:04:23;4.95;;;3.35;;
39890;SDS011;25564;53.312;9.790;2024-02-26T12:07:00;5.13;;;3.47;;
39890;SDS011;25564;53.312;9.790;2024-02-26T12:12:17;5.60;;;3.70;;
39890;SDS011;25564;53.312;9.790;2024-02-26T12:14:50;7.40;;;3.83;;
39890;SDS011;25564;53.312;9.790;2024-02-26T12:17:24;6.13;;;5.53;;
39890;SDS011;25564;53.312;9.790;2024-02-26T12:19:58;7.20;;;3.97;;
39890;SDS011;25564;53.312;9.790;2024-02-26T12:22:42;7.47;;;4.10;;
39890;SDS011;25564;53.312;9.790;2024-02-26T12:25:19;5.60;;;4.30;;
39890;SDS011;25564;53.312;9.790;2024-02-26T12:27:53;6.33;;;4.10;;
39890;SDS011;25564;53.312;9.790;2024-02-26T12:30:25;8.27;;;4.30;;
39890;SDS011;25564;53.312;9.790;2024-02-26T12:32:57;6.27;;;4.17;;
39890;SDS011;25564;53.312;9.790;2024-02-26T12:35:31;7.73;;;4.23;;
39890;SDS011;25564;53.312;9.790;2024-02-26T12:38:03;7.17;;;4.57;;
39890;SDS011;25564;53.312;9.790;2024-02-26T12:40:35;6.63;;;4.13;;
39890;SDS011;25564;53.312;9.790;2024-02-26T12:43:07;7.80;;;4.10;;
39890;SDS011;25564;53.312;9.790;2024-02-26T12:45:43;8.27;;;3.87;;
39890;SDS011;25564;53.312;9.790;2024-02-26T12:48:19;7.00;;;3.57;;
39890;SDS011;25564;53.312;9.790;2024-02-26T12:50:51;5.03;;;3.23;;
39890;SDS011;25564;53.312;9.790;2024-02-26T12:53:23;6.07;;;4.40;;
39890;SDS011;25564;53.312;9.790;2024-02-26T12:55:55;7.00;;;4.23;;
39890;SDS011;25564;53.312;9.790;2024-02-26T12:58:27;7.77;;;6.07;;
39890;SDS011;25564;53.312;9.790;2024-02-26T13:01:00;6.23;;;3.73;;
39890;SDS011;25564;53.312;9.790;2024-02-26T13:03:33;8.13;;;4.40;;
39890;SDS011;25564;53.312;9.790;2024-02-26T13:06:07;7.20;;;4.70;;
39890;SDS011;25564;53.312;9.790;2024-02-26T13:08:39;5.00;;;3.77;;
39890;SDS011;25564;53.312;9.790;2024-02-26T13:11:11;7.37;;;4.07;;
39890;SDS011;25564;53.312;9.790;2024-02-26T13:13:47;7.30;;;3.73;;
39890;SDS011;25564;53.312;9.790;2024-02-26T13:16:20;6.93;;;5.40;;
39890;SDS011;25564;53.312;9.790;2024-02-26T13:18:55;5.68;;;3.78;;
39890;SDS011;25564;53.312;9.790;2024-02-26T13:21:27;8.97;;;3.93;;
39890;SDS011;25564;53.312;9.790;2024-02-26T13:23:59;8.07;;;4.23;;
39890;SDS011;25564;53.312;9.790;2024-02-26T13:26:31;7.20;;;4.10;;
39890;SDS011;25564;53.312;9.790;2024-02-26T13:29:02;6.93;;;3.83;;
39890;SDS011;25564;53.312;9.790;2024-02-26T13:31:40;7.87;;;5.40;;
39890;SDS011;25564;53.312;9.790;2024-02-26T13:34:25;10.43;;;7.47;;
39890;SDS011;25564;53.312;9.790;2024-02-26T13:36:58;8.43;;;5.33;;
39890;SDS011;25564;53.312;9.790;2024-02-26T13:39:29;7.67;;;5.47;;
39890;SDS011;25564;53.312;9.790;2024-02-26T13:42:01;8.07;;;4.70;;
39890;SDS011;25564;53.312;9.790;2024-02-26T13:44:33;7.23;;;4.20;;
39890;SDS011;25564;53.312;9.790;2024-02-26T13:47:07;6.73;;;4.10;;
39890;SDS011;25564;53.312;9.790;2024-02-26T13:49:39;8.67;;;4.30;;
39890;SDS011;25564;53.312;9.790;2024-02-26T13:52:10;7.23;;;4.00;;
39890;SDS011;25564;53.312;9.790;2024-02-26T13:54:42;14.90;;;5.53;;
39890;SDS011;25564;53.312;9.790;2024-02-26T13:57:14;10.17;;;5.23;;
39890;SDS011;25564;53.312;9.790;2024-02-26T13:59:45;10.37;;;4.97;;
39890;SDS011;25564;53.312;9.790;2024-02-26T14:02:17;8.40;;;5.00;;
39890;SDS011;25564;53.312;9.790;2024-02-26T14:04:49;8.10;;;4.90;;
39890;SDS011;25564;53.312;9.790;2024-02-26T14:07:20;11.13;;;6.73;;
39890;SDS011;25564;53.312;9.790;2024-02-26T14:09:51;9.47;;;4.70;;
39890;SDS011;25564;53.312;9.790;2024-02-26T14:12:23;11.80;;;6.20;;
39890;SDS011;25564;53.312;9.790;2024-02-26T14:14:55;11.73;;;6.10;;
39890;SDS011;25564;53.312;9.790;2024-02-26T14:17:27;11.13;;;5.50;;
39890;SDS011;25564;53.312;9.790;2024-02-26T14:19:58;9.87;;;5.90;;
39890;SDS011;25564;53.312;9.790;2024-02-26T14:22:30;11.90;;;6.47;;
39890;SDS011;25564;53.312;9.790;2024-02-26T14:25:01;10.67;;;5.70;;
39890;SDS011;25564;53.312;9.790;2024-02-26T14:27:33;10.90;;;6.00;;
39890;SDS011;25564;53.312;9.790;2024-02-26T14:30:05;8.47;;;5.30;;
39890;SDS011;25564;53.312;9.790;2024-02-26T14:32:37;11.10;;;5.80;;
39890;SDS011;25564;53.312;9.790;2024-02-26T14:35:09;9.47;;;5.83;;
39890;SDS011;25564;53.312;9.790;2024-02-26T14:37:47;9.40;;;5.40;;
39890;SDS011;25564;53.312;9.790;2024-02-26T14:40:20;12.13;;;6.90;;
39890;SDS011;25564;53.312;9.790;2024-02-26T14:42:51;16.73;;;9.67;;
39890;SDS011;25564;53.312;9.790;2024-02-26T14:45:23;14.37;;;7.13;;
39890;SDS011;25564;53.312;9.790;2024-02-26T14:47:54;12.47;;;7.00;;
39890;SDS011;25564;53.312;9.790;2024-02-26T14:50:26;13.07;;;8.23;;
39890;SDS011;25564;53.312;9.790;2024-02-26T14:52:57;16.20;;;9.07;;
39890;SDS011;25564;53.312;9.790;2024-02-26T14:55:29;13.23;;;6.77;;
39890;SDS011;25564;53.312;9.790;2024-02-26T14:58:00;11.50;;;6.70;;
39890;SDS011;25564;53.312;9.790;2024-02-26T15:00:32;12.60;;;7.27;;
39890;SDS011;25564;53.312;9.790;2024-02-26T15:03:06;11.87;;;6.97;;
39890;SDS011;25564;53.312;9.790;2024-02-26T15:05:37;13.93;;;7.83;;
39890;SDS011;25564;53.312;9.790;2024-02-26T15:08:09;15.00;;;7.07;;
39890;SDS011;25564;53.312;9.790;2024-02-26T15:10:41;11.87;;;6.83;;
39890;SDS011;25564;53.312;9.790;2024-02-26T15:13:20;13.20;;;6.97;;
39890;SDS011;25564;53.312;9.790;2024-02-26T15:15:51;13.80;;;7.80;;
39890;SDS011;25564;53.312;9.790;2024-02-26T15:18:23;10.43;;;6.13;;
39890;SDS011;25564;53.312;9.790;2024-02-26T15:20:54;15.63;;;7.70;;
39890;SDS011;25564;53.312;9.790;2024-02-26T15:23:26;12.50;;;6.67;;
39890;SDS011;25564;53.312;9.790;2024-02-26T15:25:59;12.33;;;7.13;;